Time;durP1;ratioP1;P1;durP2;ratioP2;P2;SDS_P1;SDS_P2;PMS_P1;PMS_P2;Temp;Humidity;BMP_temperature;BMP_pressure;BME280_temperature;BME280_humidity;BME280_pressure;Samples;Min_cycle;Max_cycle;Signal;HPM_P1;HPM_P2
2021/11/27 00:02:21;;;;;;;;;2.50;1.50;;;;;4.39;79.50;97798.53;5099128;27;45162;-80
2021/11/27 00:04:47;;;;;;;;;2.00;1.50;;;;;4.36;79.76;97809.28;5099261;27;45189;-79
2021/11/27 00:07:12;;;;;;;;;1.75;0.00;;;;;4.36;79.58;97811.91;5099488;27;45150;-79
2021/11/27 00:09:38;;;;;;;;;3.25;1.25;;;;;4.34;79.54;97809.41;5099108;27;46062;-79
2021/11/27 00:12:03;;;;;;;;;1.50;0.25;;;;;4.32;79.13;97806.88;5099069;27;45256;-79
2021/11/27 00:14:30;;;;;;;;;2.00;2.00;;;;;4.29;79.20;97796.59;5098875;27;45200;-79
2021/11/27 00:16:56;;;;;;;;;3.50;1.00;;;;;4.30;79.08;97794.78;5099459;27;45409;-79
2021/11/27 00:19:21;;;;;;;;;1.00;1.00;;;;;4.29;79.47;97801.00;5098856;27;46000;-79
2021/11/27 00:21:46;;;;;;;;;5.50;1.00;;;;;4.27;79.43;97802.91;5099055;27;45294;-79
2021/11/27 00:24:12;;;;;;;;;3.75;2.00;;;;;4.23;79.59;97790.94;5098800;27;45345;-79
2021/11/27 00:26:37;;;;;;;;;2.25;1.00;;;;;4.22;79.25;97800.63;5098835;27;45236;-79
2021/11/27 00:29:04;;;;;;;;;2.00;2.00;;;;;4.22;79.36;97812.94;5098733;27;46860;-80
2021/11/27 00:31:30;;;;;;;;;1.75;0.75;;;;;4.17;79.29;97800.13;5099036;27;45666;-80
2021/11/27 00:33:58;;;;;;;;;2.00;1.00;;;;;4.18;79.30;97809.69;5098760;27;45254;-79
2021/11/27 00:36:24;;;;;;;;;1.00;1.00;;;;;4.18;79.34;97825.47;5098718;27;45249;-79
2021/11/27 00:38:51;;;;;;;;;4.75;2.50;;;;;4.17;79.19;97833.47;5080239;27;46376;-79
2021/11/27 00:41:17;;;;;;;;;3.00;1.00;;;;;4.18;78.94;97832.53;5098548;27;45194;-80
2021/11/27 00:43:44;;;;;;;;;2.50;1.00;;;;;4.15;79.10;97847.56;5098721;27;45389;-80
2021/11/27 00:46:10;;;;;;;;;1.50;0.00;;;;;4.13;78.70;97843.38;5098513;27;45200;-80
2021/11/27 00:48:36;;;;;;;;;0.00;0.00;;;;;4.07;78.45;97828.03;5098453;27;47593;-80
2021/11/27 00:51:08;;;;;;;;;0.00;0.00;;;;;4.03;78.29;97821.31;5098544;27;45197;-79
2021/11/27 00:53:34;;;;;;;;;0.00;0.00;;;;;3.96;78.17;97811.25;5098527;27;45154;-80
2021/11/27 00:56:00;;;;;;;;;0.00;0.00;;;;;3.95;78.40;97814.84;5098601;27;45162;-79
2021/11/27 00:58:26;;;;;;;;;2.00;0.00;;;;;3.93;78.19;97814.13;5098493;27;45189;-80
2021/11/27 01:00:59;;;;;;;;;0.75;0.00;;;;;3.88;78.28;97816.22;5098036;27;45825;-79
2021/11/27 01:03:28;;;;;;;;;0.00;0.00;;;;;3.85;78.61;97816.44;5098637;27;45190;-79
2021/11/27 01:05:54;;;;;;;;;0.50;0.00;;;;;3.79;78.28;97809.84;5080323;27;45355;-79
2021/11/27 01:08:20;;;;;;;;;0.00;0.00;;;;;3.76;77.39;97814.47;5097695;27;46600;-79
2021/11/27 01:10:50;;;;;;;;;0.75;0.00;;;;;3.70;77.79;97821.00;5097860;27;45182;-79
2021/11/27 01:13:16;;;;;;;;;0.00;0.00;;;;;3.66;78.01;97811.66;5098164;27;45169;-80
2021/11/27 01:15:42;;;;;;;;;1.00;0.00;;;;;3.58;78.13;97803.50;5098127;27;45112;-79
2021/11/27 01:18:08;;;;;;;;;0.00;0.00;;;;;3.54;77.84;97794.97;5079248;27;47202;-79
2021/11/27 01:20:41;;;;;;;;;0.00;0.00;;;;;3.52;77.62;97796.88;5097828;27;45269;-78
2021/11/27 01:23:09;;;;;;;;;0.00;0.00;;;;;3.49;78.25;97799.69;5098302;27;45276;-79
2021/11/27 01:25:35;;;;;;;;;1.00;1.00;;;;;3.42;77.91;97790.56;5097985;27;45329;-79
2021/11/27 01:28:01;;;;;;;;;1.00;1.00;;;;;3.41;78.14;97796.78;5097805;27;45535;-79
2021/11/27 01:30:27;;;;;;;;;1.00;0.00;;;;;3.38;78.39;97794.38;5097679;27;45300;-79
2021/11/27 01:32:52;;;;;;;;;1.50;0.25;;;;;3.28;78.47;97779.25;5097895;27;45252;-79
2021/11/27 01:35:18;;;;;;;;;0.00;0.00;;;;;3.32;78.60;97789.53;5097769;27;45260;-79
2021/11/27 01:37:43;;;;;;;;;1.50;0.00;;;;;3.24;78.43;97775.16;5097627;27;46051;-79
2021/11/27 01:40:15;;;;;;;;;0.25;0.00;;;;;3.34;78.70;97785.03;5097530;27;45182;-79
2021/11/27 01:42:41;;;;;;;;;1.00;0.00;;;;;3.31;78.61;97782.59;5097904;27;45295;-79
2021/11/27 01:45:08;;;;;;;;;0.00;0.00;;;;;3.25;78.73;97784.72;5097718;27;45457;-79
2021/11/27 01:47:34;;;;;;;;;1.25;0.00;;;;;3.21;78.72;97777.19;5097618;27;46425;-79
2021/11/27 01:50:00;;;;;;;;;0.50;0.50;;;;;3.18;79.02;97780.00;5097365;27;45183;-79
2021/11/27 01:52:25;;;;;;;;;1.00;1.00;;;;;3.16;78.85;97782.72;5097761;27;45322;-79
2021/11/27 01:54:50;;;;;;;;;2.25;1.00;;;;;3.11;78.67;97774.34;5097444;27;45417;-79
2021/11/27 01:57:16;;;;;;;;;0.00;0.00;;;;;3.11;79.24;97771.72;5097548;27;45231;-79
2021/11/27 01:59:43;;;;;;;;;1.25;0.00;;;;;3.10;79.15;97770.88;5096839;27;45207;-79
2021/11/27 02:02:11;;;;;;;;;6.00;0.75;;;;;3.07;79.39;97771.09;5097540;27;45303;-79
2021/11/27 02:04:37;;;;;;;;;1.00;0.00;;;;;3.09;79.26;97773.59;5097280;27;45498;-80
2021/11/27 02:07:03;;;;;;;;;0.00;0.00;;;;;3.08;79.09;97769.31;5097325;27;45215;-79
2021/11/27 02:09:32;;;;;;;;;0.50;0.50;;;;;3.08;78.94;97769.31;5097123;27;45220;-81
2021/11/27 02:11:59;;;;;;;;;3.00;0.50;;;;;3.08;79.30;97770.16;5097495;27;45280;-80
2021/11/27 02:14:25;;;;;;;;;0.00;0.00;;;;;3.06;78.98;97766.78;5097057;27;45336;-79
2021/11/27 02:16:51;;;;;;;;;0.75;0.00;;;;;3.07;79.25;97772.88;5097058;27;45381;-79
2021/11/27 02:19:17;;;;;;;;;0.00;0.00;;;;;3.05;78.87;97766.88;5096829;27;45306;-80
2021/11/27 02:21:44;;;;;;;;;1.00;0.00;;;;;3.03;78.68;97759.13;5096137;27;45182;-80
2021/11/27 02:24:15;;;;;;;;;0.00;0.00;;;;;3.02;78.77;97756.59;5096969;27;45212;-80
2021/11/27 02:26:41;;;;;;;;;0.25;0.25;;;;;2.94;78.69;97746.66;5096711;27;46231;-80
2021/11/27 02:29:11;;;;;;;;;2.75;0.00;;;;;2.92;78.96;97749.38;5096665;27;45228;-80
2021/11/27 02:31:37;;;;;;;;;1.75;0.00;;;;;2.84;78.85;97738.56;5096609;27;45267;-80
2021/11/27 02:34:05;;;;;;;;;0.75;0.00;;;;;2.82;78.65;97731.72;5097100;27;45307;-80
2021/11/27 02:36:31;;;;;;;;;0.00;0.00;;;;;2.76;78.97;97733.00;5097053;27;45230;-80
2021/11/27 02:38:58;;;;;;;;;1.00;0.00;;;;;2.76;78.83;97733.00;5096859;27;45672;-80
2021/11/27 02:41:23;;;;;;;;;0.00;0.00;;;;;2.73;78.89;97735.84;5097266;27;45217;-80
2021/11/27 02:43:49;;;;;;;;;0.00;0.00;;;;;2.59;79.06;97715.78;5096920;27;45279;-80
2021/11/27 02:46:14;;;;;;;;;1.00;0.00;;;;;2.66;79.02;97732.78;5096655;27;46630;-80
2021/11/27 02:48:39;;;;;;;;;0.00;0.00;;;;;2.57;78.82;97715.06;5096722;27;45184;-80
2021/11/27 02:51:05;;;;;;;;;1.00;0.00;;;;;2.58;79.08;97725.44;5096899;27;45211;-80
2021/11/27 02:53:31;;;;;;;;;1.00;0.00;;;;;2.55;79.22;97722.19;5096855;27;45146;-80
2021/11/27 02:55:56;;;;;;;;;1.75;0.00;;;;;2.48;79.24;97713.91;5095337;27;47083;-80
2021/11/27 02:58:22;;;;;;;;;0.00;0.00;;;;;2.46;79.07;97712.31;5096828;27;45226;-80
2021/11/27 03:00:50;;;;;;;;;0.00;0.00;;;;;2.44;79.29;97709.81;5096764;27;45219;-80
2021/11/27 03:03:15;;;;;;;;;0.75;0.00;;;;;2.42;79.43;97712.53;5096776;27;45423;-80
2021/11/27 03:05:41;;;;;;;;;0.00;0.00;;;;;2.40;79.24;97716.19;5096422;27;45434;-80
2021/11/27 03:08:06;;;;;;;;;0.00;0.00;;;;;2.36;79.29;97709.47;5096371;27;45551;-80
2021/11/27 03:10:31;;;;;;;;;1.00;0.00;;;;;2.34;79.34;97703.50;5096863;27;45342;-80
2021/11/27 03:12:57;;;;;;;;;0.00;0.00;;;;;2.33;79.25;97704.44;5096784;27;45180;-80
2021/11/27 03:15:23;;;;;;;;;0.00;0.00;;;;;2.30;79.27;97702.88;5096322;27;46218;-80
2021/11/27 03:17:48;;;;;;;;;0.00;0.00;;;;;2.26;79.05;97701.38;5096475;27;45153;-80
2021/11/27 03:20:17;;;;;;;;;2.00;0.25;;;;;2.24;78.96;97698.03;5096339;27;45236;-80
2021/11/27 03:22:43;;;;;;;;;1.00;1.00;;;;;2.19;79.37;97692.25;5096558;27;45160;-80
2021/11/27 03:25:10;;;;;;;;;0.00;0.00;;;;;2.17;79.25;97697.59;5095984;27;45773;-80
2021/11/27 03:27:40;;;;;;;;;2.50;1.00;;;;;2.15;79.37;97701.25;5096336;27;45205;-80
2021/11/27 03:30:10;;;;;;;;;0.75;0.75;;;;;2.11;79.39;97682.31;5096376;27;45192;-80
2021/11/27 03:32:35;;;;;;;;;2.00;1.00;;;;;2.08;79.37;97677.22;5098625;27;45395;-80
2021/11/27 03:35:01;;;;;;;;;0.50;0.50;;;;;2.08;79.34;97674.63;5099507;27;45561;-80
2021/11/27 03:37:27;;;;;;;;;1.00;0.00;;;;;2.02;79.38;97670.66;5099831;27;45298;-80
2021/11/27 03:39:52;;;;;;;;;0.00;0.00;;;;;2.05;79.39;97673.06;5099763;27;45260;-80
2021/11/27 03:42:18;;;;;;;;;1.50;1.00;;;;;2.03;79.35;97674.94;5099717;27;45252;-80
2021/11/27 03:44:44;;;;;;;;;1.00;1.00;;;;;2.02;80.08;97675.91;5099451;27;46250;-80
2021/11/27 03:47:10;;;;;;;;;0.75;0.00;;;;;2.02;79.31;97668.03;5099730;27;45551;-80
2021/11/27 03:49:35;;;;;;;;;0.00;0.00;;;;;1.96;79.43;97652.69;5099677;27;45214;-80
2021/11/27 03:52:02;;;;;;;;;0.00;0.00;;;;;1.99;79.39;97662.13;5099778;27;45109;-80
2021/11/27 03:54:27;;;;;;;;;0.00;0.00;;;;;1.91;79.33;97646.94;5099054;27;47229;-80
2021/11/27 03:56:54;;;;;;;;;2.75;0.00;;;;;1.92;79.44;97647.78;5099575;27;45636;-80
2021/11/27 03:59:20;;;;;;;;;0.50;0.00;;;;;1.92;79.44;97639.91;5099346;27;45189;-80
2021/11/27 04:01:46;;;;;;;;;4.00;0.50;;;;;1.89;79.18;97619.97;5099450;27;45201;-80
2021/11/27 04:04:12;;;;;;;;;1.00;0.00;;;;;1.85;79.15;97621.97;5099136;27;45433;-80
2021/11/27 04:06:38;;;;;;;;;3.00;0.00;;;;;1.85;79.14;97614.13;5099293;27;45751;-80
2021/11/27 04:09:06;;;;;;;;;0.50;0.00;;;;;1.82;79.09;97619.53;5099404;27;45301;-80
2021/11/27 04:11:32;;;;;;;;;0.50;0.00;;;;;1.82;79.16;97616.09;5099378;27;45218;-80
2021/11/27 04:13:58;;;;;;;;;0.25;0.00;;;;;1.81;79.03;97620.50;5098820;27;45554;-80
2021/11/27 04:16:24;;;;;;;;;0.00;0.00;;;;;1.79;79.01;97601.41;5099193;27;45269;-80
2021/11/27 04:18:49;;;;;;;;;0.00;0.00;;;;;1.85;78.89;97614.13;5098989;27;45131;-80
2021/11/27 04:21:17;;;;;;;;;1.00;0.00;;;;;1.87;78.69;97611.41;5099268;27;45173;-80
2021/11/27 04:23:43;;;;;;;;;0.75;0.00;;;;;1.88;78.95;97600.81;5098470;27;46313;-80
2021/11/27 04:26:08;;;;;;;;;2.75;1.00;;;;;1.88;78.82;97598.19;5099203;27;45200;-80
2021/11/27 04:28:34;;;;;;;;;0.00;0.00;;;;;1.90;78.70;97605.94;5098740;27;45255;-80
2021/11/27 04:31:00;;;;;;;;;1.00;0.00;;;;;1.84;78.86;97591.47;5099026;27;45208;-80
2021/11/27 04:33:25;;;;;;;;;1.00;0.00;;;;;1.89;78.62;97610.34;5098912;27;45255;-79
2021/11/27 04:35:51;;;;;;;;;0.00;0.00;;;;;1.92;78.81;97613.69;5098783;27;45265;-79
2021/11/27 04:38:17;;;;;;;;;1.00;0.00;;;;;1.92;78.52;97618.94;5098908;27;45097;-79
2021/11/27 04:40:42;;;;;;;;;0.50;0.00;;;;;1.92;78.83;97616.31;5098976;27;45326;-80
2021/11/27 04:43:07;;;;;;;;;0.00;0.00;;;;;1.88;78.65;97602.56;5097404;27;46331;-80
2021/11/27 04:45:33;;;;;;;;;0.75;0.00;;;;;1.96;78.71;97618.63;5098757;27;45236;-79
2021/11/27 04:48:00;;;;;;;;;0.75;0.00;;;;;1.99;78.68;97631.53;5098677;27;45276;-80
2021/11/27 04:50:28;;;;;;;;;5.00;0.00;;;;;1.98;78.44;97622.00;5098454;27;45221;-79
2021/11/27 04:52:54;;;;;;;;;0.00;0.00;;;;;2.00;78.22;97619.28;5098368;27;45256;-80
2021/11/27 04:55:20;;;;;;;;;0.00;0.00;;;;;1.98;78.23;97613.28;5098652;27;45208;-80
2021/11/27 04:57:46;;;;;;;;;0.00;0.00;;;;;2.02;78.32;97623.47;5098519;27;45178;-80
2021/11/27 05:00:18;;;;;;;;;1.00;0.00;;;;;2.03;78.27;97612.03;5098393;27;45230;-79
2021/11/27 05:02:43;;;;;;;;;0.75;0.00;;;;;2.07;78.42;97610.06;5098342;27;46620;-79
2021/11/27 05:05:08;;;;;;;;;2.00;0.00;;;;;2.09;78.14;97602.91;5098130;27;45155;-79
2021/11/27 05:07:34;;;;;;;;;2.50;0.00;;;;;2.10;78.14;97595.91;5098335;27;45472;-79
2021/11/27 05:09:59;;;;;;;;;0.00;0.00;;;;;2.06;77.95;97576.91;5079663;27;45185;-79
2021/11/27 05:12:25;;;;;;;;;2.00;0.00;;;;;2.15;78.15;97580.69;5098310;27;45439;-79
2021/11/27 05:14:50;;;;;;;;;0.75;0.00;;;;;2.17;77.72;97582.25;5097953;27;45220;-79
2021/11/27 05:17:15;;;;;;;;;1.25;0.00;;;;;2.21;78.10;97580.28;5097917;27;45207;-79
2021/11/27 05:19:41;;;;;;;;;1.00;0.00;;;;;2.24;77.81;97567.78;5097814;27;45131;-79
2021/11/27 05:22:06;;;;;;;;;2.00;0.00;;;;;2.28;77.78;97554.47;5097886;27;45145;-79
2021/11/27 05:24:32;;;;;;;;;2.00;0.25;;;;;2.29;77.78;97556.97;5097561;27;45267;-79
2021/11/27 05:26:57;;;;;;;;;1.00;0.00;;;;;2.32;77.64;97562.00;5097983;27;45195;-79
2021/11/27 05:29:23;;;;;;;;;2.75;0.00;;;;;2.34;77.92;97560.13;5097799;27;45250;-79
2021/11/27 05:31:52;;;;;;;;;0.75;0.75;;;;;2.36;77.66;97554.78;5097932;27;45266;-79
2021/11/27 05:36:49;;;;;;;;;1.00;0.00;;;;;2.40;77.53;97551.81;5097647;27;45260;-79
2021/11/27 05:39:14;;;;;;;;;0.25;0.00;;;;;2.44;77.74;97554.22;5097600;27;45324;-79
2021/11/27 05:41:40;;;;;;;;;0.00;0.00;;;;;2.46;77.56;97544.47;5079230;27;47992;-79
2021/11/27 05:44:06;;;;;;;;;0.00;0.00;;;;;2.47;77.18;97552.25;5097504;27;45201;-79
2021/11/27 05:46:31;;;;;;;;;1.00;0.00;;;;;2.48;76.87;97551.31;5097940;27;45192;-79
2021/11/27 05:48:57;;;;;;;;;1.00;0.50;;;;;2.51;77.04;97556.31;5097566;27;45279;-80
2021/11/27 05:51:22;;;;;;;;;0.50;0.00;;;;;2.52;77.04;97546.66;5097394;27;45225;-79
2021/11/27 05:53:48;;;;;;;;;1.00;0.00;;;;;2.51;77.05;97550.22;5097519;27;45191;-79
2021/11/27 05:56:13;;;;;;;;;2.00;0.00;;;;;2.51;76.91;97530.09;5097723;27;45252;-79
2021/11/27 05:58:38;;;;;;;;;0.25;0.00;;;;;2.53;76.69;97528.19;5097504;27;45276;-79
2021/11/27 06:01:05;;;;;;;;;0.50;0.00;;;;;2.51;76.64;97531.88;5097102;27;45233;-79
2021/11/27 06:03:32;;;;;;;;;1.00;0.00;;;;;2.57;76.98;97540.16;5097375;27;45564;-80
2021/11/27 06:05:58;;;;;;;;;0.75;0.00;;;;;2.62;77.37;97542.44;5097610;27;45282;-79
2021/11/27 06:08:23;;;;;;;;;0.00;0.00;;;;;2.63;76.77;97533.63;5097620;27;45132;-80
2021/11/27 06:10:49;;;;;;;;;0.00;0.00;;;;;2.63;76.90;97538.88;5097029;27;45310;-79
2021/11/27 06:13:14;;;;;;;;;0.00;0.00;;;;;2.62;77.25;97541.59;5097489;27;45184;-79
2021/11/27 06:15:40;;;;;;;;;1.00;0.00;;;;;2.67;77.18;97539.50;5097485;27;45365;-80
2021/11/27 06:18:05;;;;;;;;;0.25;0.00;;;;;2.71;76.80;97535.72;5097318;27;45196;-79
2021/11/27 06:20:31;;;;;;;;;6.50;0.00;;;;;2.70;76.81;97529.63;5097052;27;45424;-79
2021/11/27 06:22:56;;;;;;;;;0.00;0.00;;;;;2.71;77.33;97533.91;5096970;27;45174;-79
2021/11/27 06:25:23;;;;;;;;;2.75;1.00;;;;;2.78;77.32;97525.59;5077296;27;45436;-79
2021/11/27 06:27:48;;;;;;;;;2.00;0.25;;;;;2.78;77.39;97536.09;5095865;27;45251;-79
2021/11/27 06:30:14;;;;;;;;;0.00;0.00;;;;;2.74;77.49;97525.81;5095237;27;45970;-79
2021/11/27 06:32:39;;;;;;;;;2.75;0.00;;;;;2.72;77.36;97516.38;5095327;27;45359;-79
2021/11/27 06:35:04;;;;;;;;;1.25;0.00;;;;;2.64;77.45;97516.94;5095404;27;45235;-79
2021/11/27 06:37:30;;;;;;;;;1.50;1.00;;;;;2.64;77.63;97518.75;5095834;27;45218;-79
2021/11/27 06:39:59;;;;;;;;;2.00;0.00;;;;;2.56;77.95;97520.09;5095035;27;45920;-79
2021/11/27 06:42:27;;;;;;;;;1.00;0.00;;;;;2.53;78.10;97517.69;5095427;27;45192;-80
2021/11/27 06:44:52;;;;;;;;;1.00;0.00;;;;;2.54;77.93;97518.56;5095263;27;45339;-79
2021/11/27 06:47:21;;;;;;;;;0.00;0.00;;;;;2.50;78.76;97524.97;5095551;27;45184;-79
2021/11/27 06:49:47;;;;;;;;;0.25;0.25;;;;;2.39;78.74;97499.50;5095139;27;45146;-79
2021/11/27 06:52:14;;;;;;;;;0.00;0.00;;;;;2.46;78.96;97513.84;5060246;27;45550;-79
2021/11/27 06:54:40;;;;;;;;;0.00;0.00;;;;;2.41;78.73;97508.94;5095554;27;45512;-79
2021/11/27 06:57:07;;;;;;;;;1.75;0.00;;;;;2.32;78.79;97506.94;5095579;27;45236;-78
2021/11/27 06:59:33;;;;;;;;;2.75;0.00;;;;;2.37;79.44;97515.34;5095275;27;45326;-79
2021/11/27 07:01:59;;;;;;;;;2.00;0.00;;;;;2.42;79.23;97507.13;5095309;27;45862;-79
2021/11/27 07:04:24;;;;;;;;;2.00;0.00;;;;;2.49;79.47;97531.16;5095411;27;45084;-79
2021/11/27 07:06:50;;;;;;;;;0.00;0.00;;;;;2.47;79.31;97512.06;5096585;27;45153;-78
2021/11/27 07:09:15;;;;;;;;;0.00;0.00;;;;;2.44;79.38;97526.25;5098955;27;46262;-78
2021/11/27 07:11:41;;;;;;;;;1.25;0.25;;;;;2.42;79.35;97518.47;5099248;27;45162;-80
2021/11/27 07:14:07;;;;;;;;;0.00;0.00;;;;;2.42;79.46;97528.13;5099275;27;45212;-79
2021/11/27 07:16:33;;;;;;;;;0.00;0.00;;;;;2.36;79.08;97524.13;5099377;27;45126;-79
2021/11/27 07:18:58;;;;;;;;;1.00;0.00;;;;;2.31;79.01;97528.88;5080385;27;45942;-79
2021/11/27 07:21:24;;;;;;;;;1.00;0.00;;;;;2.26;79.26;97527.53;5099088;27;45282;-79
2021/11/27 07:23:49;;;;;;;;;1.50;1.50;;;;;2.23;79.62;97524.16;5047713;27;1442898;-80
2021/11/27 07:26:14;;;;;;;;;0.00;0.00;;;;;2.20;79.32;97527.00;5100005;27;45244;-79
2021/11/27 07:28:40;;;;;;;;;1.00;0.00;;;;;2.13;79.47;97520.50;5099889;27;46012;-78
2021/11/27 07:31:06;;;;;;;;;0.75;0.50;;;;;2.10;79.41;97515.47;5081061;27;46189;-78
2021/11/27 07:33:31;;;;;;;;;0.00;0.00;;;;;1.97;79.53;97518.13;5099713;27;45255;-79
2021/11/27 07:35:57;;;;;;;;;0.00;0.00;;;;;1.98;80.16;97522.44;5099685;27;45190;-78
2021/11/27 07:38:22;;;;;;;;;1.00;0.00;;;;;1.85;80.18;97511.94;5099757;27;45288;-81
2021/11/27 07:40:48;;;;;;;;;0.00;0.00;;;;;1.89;80.27;97528.28;5099700;27;45368;-79
2021/11/27 07:43:13;;;;;;;;;0.00;0.00;;;;;1.87;80.46;97538.88;5099635;27;45247;-78
2021/11/27 07:45:39;;;;;;;;;0.00;0.00;;;;;1.80;80.39;97535.00;5099483;27;45331;-79
2021/11/27 07:48:04;;;;;;;;;0.00;0.00;;;;;1.78;80.36;97533.41;5080938;27;47179;-79
2021/11/27 07:50:29;;;;;;;;;0.00;0.00;;;;;1.73;80.90;97536.34;5099624;27;45132;-79
2021/11/27 07:52:55;;;;;;;;;2.00;0.00;;;;;1.78;81.18;97563.09;5099551;27;45224;-79
2021/11/27 07:55:20;;;;;;;;;0.00;0.00;;;;;1.80;80.91;97555.13;5099272;27;45155;-78
2021/11/27 07:57:46;;;;;;;;;0.00;0.00;;;;;1.74;81.36;97543.28;5099510;27;45321;-79
2021/11/27 08:00:11;;;;;;;;;0.00;0.00;;;;;1.73;81.29;97539.78;5080990;27;45115;-79
2021/11/27 08:02:37;;;;;;;;;0.25;0.00;;;;;1.82;81.29;97546.19;5099986;27;45263;-79
2021/11/27 08:05:03;;;;;;;;;0.00;0.00;;;;;1.77;81.50;97548.31;5099458;27;45275;-78
2021/11/27 08:07:28;;;;;;;;;0.00;0.00;;;;;1.73;81.69;97544.22;5099564;27;46608;-79
2021/11/27 08:09:55;;;;;;;;;0.00;0.00;;;;;1.80;81.79;97553.31;5099368;27;45228;-80
2021/11/27 08:12:21;;;;;;;;;0.00;0.00;;;;;1.83;81.97;97557.53;5080772;27;45208;-78
2021/11/27 08:14:46;;;;;;;;;0.00;0.00;;;;;1.85;82.17;97563.50;5080960;27;45261;-80
2021/11/27 08:17:11;;;;;;;;;5.25;3.75;;;;;1.88;82.15;97564.13;5099193;27;45314;-79
2021/11/27 08:19:36;;;;;;;;;0.00;0.00;;;;;1.91;82.24;97550.00;5097529;27;45241;-79
2021/11/27 08:22:02;;;;;;;;;0.00;0.00;;;;;1.93;82.13;97563.00;5099419;27;45175;-80
2021/11/27 08:24:27;;;;;;;;;2.00;1.00;;;;;1.99;82.04;97570.41;5098872;27;45373;-79
2021/11/27 08:26:53;;;;;;;;;0.00;0.00;;;;;1.99;81.97;97557.31;5099138;27;45193;-78
2021/11/27 08:29:18;;;;;;;;;0.00;0.00;;;;;2.06;82.13;97569.88;5098931;27;45364;-79
2021/11/27 08:31:46;;;;;;;;;2.75;2.75;;;;;2.09;81.98;97557.53;5098934;27;45209;-78
2021/11/27 08:34:12;;;;;;;;;0.00;0.00;;;;;2.11;81.62;97564.34;5099017;27;45215;-79
2021/11/27 08:36:37;;;;;;;;;1.25;1.00;;;;;2.10;81.75;97556.59;5098865;27;46689;-80
2021/11/27 08:39:04;;;;;;;;;0.00;0.00;;;;;2.11;82.02;97553.88;5099055;27;45115;-80
2021/11/27 08:41:29;;;;;;;;;1.00;0.00;;;;;2.09;81.95;97553.13;5098945;27;45328;-81
2021/11/27 08:43:54;;;;;;;;;1.25;0.00;;;;;2.10;81.81;97560.03;5098802;27;45303;-80
2021/11/27 08:46:20;;;;;;;;;1.50;0.50;;;;;2.10;82.11;97559.22;5098689;27;45289;-81
2021/11/27 08:48:45;;;;;;;;;0.00;0.00;;;;;2.21;81.86;97572.44;5098709;27;45253;-83
2021/11/27 08:51:12;;;;;;;;;0.50;0.50;;;;;2.23;81.81;97581.00;5080327;27;45322;-82
2021/11/27 08:53:38;;;;;;;;;0.50;0.50;;;;;2.26;81.69;97574.72;5098925;27;45173;-83
2021/11/27 08:56:06;;;;;;;;;0.00;0.00;;;;;2.29;81.86;97575.31;5098586;27;46096;-85
2021/11/27 08:58:32;;;;;;;;;2.00;0.50;;;;;2.32;81.96;97562.00;5098732;27;45626;-82
2021/11/27 09:00:57;;;;;;;;;2.00;1.00;;;;;2.36;81.85;97567.88;5098927;27;45199;-83
2021/11/27 09:03:22;;;;;;;;;0.50;0.50;;;;;2.37;81.73;97567.78;5099093;27;45174;-82
2021/11/27 09:05:48;;;;;;;;;0.00;0.00;;;;;2.40;81.84;97575.44;5099126;27;46046;-82
2021/11/27 09:08:15;;;;;;;;;1.00;1.00;;;;;2.45;81.86;97580.34;5098258;27;45200;-82
2021/11/27 09:10:41;;;;;;;;;0.75;0.75;;;;;2.50;81.74;97582.66;5098941;27;45577;-82
2021/11/27 09:13:06;;;;;;;;;1.00;1.00;;;;;2.55;81.72;97583.16;5098392;27;45268;-82
2021/11/27 09:15:32;;;;;;;;;0.50;0.50;;;;;2.57;81.49;97583.91;5098189;27;45300;-80
2021/11/27 09:17:57;;;;;;;;;0.00;0.00;;;;;2.62;81.83;97583.56;5079551;27;45249;-81
2021/11/27 09:20:23;;;;;;;;;0.00;0.00;;;;;2.59;81.63;97595.13;5098031;27;45406;-82
2021/11/27 09:22:48;;;;;;;;;1.00;0.00;;;;;2.65;81.70;97601.72;5098097;27;45173;-78
2021/11/27 09:25:14;;;;;;;;;1.00;0.00;;;;;2.63;81.50;97601.00;5097592;27;45299;-78
2021/11/27 09:27:39;;;;;;;;;0.75;0.75;;;;;2.65;81.56;97607.81;5098127;27;45182;-78
2021/11/27 09:30:07;;;;;;;;;0.00;0.00;;;;;2.66;81.55;97600.78;5097245;27;45208;-78
2021/11/27 09:32:33;;;;;;;;;0.00;0.00;;;;;2.67;81.45;97607.72;5098200;27;45089;-78
2021/11/27 09:34:59;;;;;;;;;0.00;0.00;;;;;2.69;81.88;97608.44;5097664;27;45162;-78
2021/11/27 09:37:25;;;;;;;;;1.00;0.25;;;;;2.71;81.93;97615.25;5098239;27;45703;-79
2021/11/27 09:39:50;;;;;;;;;0.25;0.25;;;;;2.70;81.94;97610.94;5097592;27;45271;-78
2021/11/27 09:42:18;;;;;;;;;1.00;0.00;;;;;2.74;82.10;97611.59;5098209;27;45279;-78
2021/11/27 09:44:49;;;;;;;;;0.00;0.00;;;;;2.80;81.70;97605.88;5097578;27;45519;-79
2021/11/27 09:47:16;;;;;;;;;1.75;1.00;;;;;2.82;81.49;97617.13;5078869;27;46082;-79
2021/11/27 09:49:43;;;;;;;;;0.00;0.00;;;;;2.85;81.38;97626.56;5097579;27;45322;-79
2021/11/27 09:52:09;;;;;;;;;1.00;0.00;;;;;2.81;81.62;97619.84;5097747;27;45273;-79
2021/11/27 09:54:35;;;;;;;;;1.00;1.00;;;;;2.90;81.85;97622.66;5097291;27;45563;-78
2021/11/27 09:57:04;;;;;;;;;0.00;0.00;;;;;2.91;81.64;97626.13;5097622;27;45190;-78
2021/11/27 09:59:29;;;;;;;;;1.50;0.75;;;;;3.00;81.68;97635.97;5097201;27;45304;-79
2021/11/27 10:01:56;;;;;;;;;0.00;0.00;;;;;3.04;81.73;97637.44;5097472;27;45205;-78
2021/11/27 10:04:23;;;;;;;;;0.00;0.00;;;;;3.05;81.83;97648.75;5078694;27;48362;-78
2021/11/27 10:06:48;;;;;;;;;1.75;0.00;;;;;3.01;81.26;97639.44;5097375;27;45641;-78
2021/11/27 10:09:16;;;;;;;;;1.00;0.00;;;;;3.02;81.18;97639.34;5097317;27;45279;-78
2021/11/27 10:11:44;;;;;;;;;5.25;0.00;;;;;2.99;81.75;97641.31;5097380;27;45166;-78
2021/11/27 10:14:10;;;;;;;;;2.25;1.50;;;;;3.06;81.79;97653.91;5096776;27;45494;-79
2021/11/27 10:16:58;;;;;;;;;0.00;0.00;;;;;3.09;81.72;97652.84;5097380;27;45225;-79
2021/11/27 10:19:27;;;;;;;;;0.00;0.00;;;;;3.10;81.64;97647.47;5097030;27;45305;-79
2021/11/27 10:21:57;;;;;;;;;0.00;0.00;;;;;3.14;81.72;97648.13;5096749;27;45288;-78
2021/11/27 10:24:26;;;;;;;;;0.00;0.00;;;;;3.08;81.51;97641.50;5096371;27;46362;-78
2021/11/27 10:26:52;;;;;;;;;0.00;0.00;;;;;3.18;81.81;97646.94;5078932;27;45167;-79
2021/11/27 10:29:20;;;;;;;;;0.75;0.00;;;;;3.24;81.97;97656.19;5096825;27;45206;-78
2021/11/27 10:31:51;;;;;;;;;5.00;3.00;;;;;3.24;82.16;97646.50;5096865;27;45240;-78
2021/11/27 10:34:18;;;;;;;;;0.00;0.00;;;;;3.35;82.12;97644.88;5096680;27;46169;-79
2021/11/27 10:36:44;;;;;;;;;1.00;1.00;;;;;3.42;81.71;97652.22;5096930;27;45734;-78
2021/11/27 10:39:09;;;;;;;;;1.00;0.00;;;;;3.46;81.84;97652.81;5096838;27;45673;-79
2021/11/27 10:41:37;;;;;;;;;1.00;1.00;;;;;3.50;81.82;97656.91;5097651;27;45358;-78
2021/11/27 10:44:08;;;;;;;;;2.00;1.00;;;;;3.48;81.68;97637.81;5100049;27;45262;-79
2021/11/27 10:46:36;;;;;;;;;1.00;0.00;;;;;3.57;81.52;97642.38;5100261;27;45501;-79
2021/11/27 10:49:10;;;;;;;;;1.00;0.00;;;;;3.61;81.43;97635.13;5100249;27;45346;-78
2021/11/27 10:51:35;;;;;;;;;2.00;1.00;;;;;3.67;81.62;97636.44;5100248;27;45315;-79
2021/11/27 10:54:04;;;;;;;;;0.00;0.00;;;;;3.73;81.41;97636.00;5100221;27;45919;-78
2021/11/27 10:56:48;;;;;;;;;0.00;0.00;;;;;3.75;81.64;97632.31;5100444;27;45296;-79
2021/11/27 10:59:15;;;;;;;;;0.50;0.00;;;;;3.75;81.12;97628.84;5100223;27;45271;-79
2021/11/27 11:02:11;;;;;;;;;1.50;0.00;;;;;3.77;81.53;97627.75;5100067;27;45240;-78
2021/11/27 11:04:37;;;;;;;;;0.00;0.00;;;;;3.76;81.05;97622.63;5086645;27;46524;-78
2021/11/27 11:07:17;;;;;;;;;30.25;20.25;;;;;3.82;81.72;97637.09;5100092;27;45608;-78
2021/11/27 11:10:07;;;;;;;;;17.75;13.75;;;;;3.84;81.17;97630.78;5081689;27;45357;-78
2021/11/27 11:12:42;;;;;;;;;2.00;1.00;;;;;3.92;81.67;97627.56;5100309;27;45192;-78
2021/11/27 11:15:18;;;;;;;;;0.00;0.00;;;;;3.96;81.42;97627.25;5099656;27;46483;-79
2021/11/27 11:17:45;;;;;;;;;0.50;0.50;;;;;4.02;81.33;97640.84;5099754;27;45696;-79
2021/11/27 11:20:22;;;;;;;;;2.75;1.00;;;;;4.05;81.11;97633.59;5099655;27;45243;-78
2021/11/27 11:23:04;;;;;;;;;1.50;0.00;;;;;4.08;80.87;97633.34;5099781;27;45256;-79
2021/11/27 11:25:30;;;;;;;;;50.75;40.25;;;;;4.09;81.10;97629.78;5099305;27;46274;-78
2021/11/27 11:27:58;;;;;;;;;3.00;1.75;;;;;4.13;80.78;97644.38;5099843;27;45240;-78
2021/11/27 11:30:35;;;;;;;;;2.75;2.00;;;;;4.15;80.90;97644.25;5081375;27;45344;-79
2021/11/27 11:33:01;;;;;;;;;2.00;0.75;;;;;4.14;80.89;97656.53;5099733;27;45309;-79
2021/11/27 11:35:26;;;;;;;;;2.50;1.00;;;;;4.10;80.66;97643.75;5099329;27;46240;-79
2021/11/27 11:37:52;;;;;;;;;1.00;1.00;;;;;4.07;80.90;97646.63;5099771;27;45143;-78
2021/11/27 11:40:18;;;;;;;;;10.50;7.25;;;;;4.05;80.64;97643.28;5099476;27;45297;-78
2021/11/27 11:42:43;;;;;;;;;6.75;4.00;;;;;3.98;81.00;97646.34;5099746;27;45204;-79